Salado, Texas
Current Conditions -  °F | °C
As of 3:55 AM on Friday 28 Nov 2014 (Local Time) from KILE Reporting Station
Clear Clear  
Wind Chill: 39°   Ceiling: Unl
Heat Index: 43°   Visibility: 10mi
Dew Point: 28°   Wind: 6mph
Humidity: 57%   Direction: 190°S
Pressure: 30.3"   Gusts: NA
Location:  30.95°N, 97.54°W
Report Text: KILE 280955Z AUTO 19005KT 10SM CLR 06/M02 A3030 RMK AO1
Loading
Personal Weather Stations






























Interactive Weather Map New forecast layout! Learn more

10-Day Weather Forecast

Advertisements
Track Severe Weather on mobile